Flight Track Log - Related Links

Times and Time Zones

All times are in EST time to prevent confusion due to time zone crossing. See the N406TM flight status page for this flight to view local times or setup timezone preferences in your user account.


Time Position Orientation Groundspeed Altitude Reporting Facility
EST Latitude Longitude Course Direction KTS MPH feet Rate Location/Type
Sun 01:42:22 PM 40.8333 -74.1000 252° West 163 188 1,300  Level New York TRACON
Sun 01:43:22 PM 40.8167 -74.1667 252° West 203 234 2,800 2,238 Climbing New York TRACON
Sun 01:44:28 PM 40.7667 -74.2000 207° Southwest 240 276 6,000 2,550 Climbing New York TRACON
Sun 01:45:22 PM 40.7000 -74.2167 191° South 232 267 7,900 3,150 Climbing New York TRACON
Sun 01:46:28 PM 40.6333 -74.2333 191° South 245 282 12,300 3,429 Climbing New York TRACON
Sun 01:47:28 PM 40.5667 -74.2167 169° South 278 320 15,100 1,680 Climbing New York TRACON
Sun 01:49:48 PM 40.3822 -74.1756 170° South 304 350 17,900 1,455 Climbing Washington Center
Sun 01:50:46 PM 40.2925 -74.1664 176° South 304 350 19,900 2,136 Climbing Washington Center
Sun 01:51:46 PM 40.2033 -74.1928 193° South 318 366 22,100 1,835 Climbing Washington Center
Sun 01:52:47 PM 40.1097 -74.2189 192° South 330 380 23,600 934 Climbing Washington Center
Sun 01:53:48 PM 40.0186 -74.2506 195° South 342 394 24,000 202 Climbing Washington Center
Sun 01:54:46 PM 39.9442 -74.3142 213° Southwest 336 387 24,000  Level Washington Center
Sun 01:55:47 PM 39.8700 -74.3803 214° Southwest 328 377 24,000 738 Level Washington Center
Sun 01:56:48 PM 39.8019 -74.4544 220° Southwest 328 377 25,500 1,714 Climbing Washington Center
Sun 01:57:46 PM 39.7319 -74.5447 225° Southwest 328 377 27,400 1,815 Climbing Washington Center
Sun 01:58:47 PM 39.6681 -74.6319 226° Southwest 328 377 29,100 1,438 Climbing Washington Center
Sun 01:59:47 PM 39.6042 -74.7189 226° Southwest 328 377 30,300 893 Climbing Washington Center
Sun 02:00:48 PM 39.5339 -74.8086 225° Southwest 334 384 30,900 706 Climbing Washington Center
Sun 02:01:46 PM 39.4594 -74.9061 225° Southwest 360 414 31,700 908 Climbing Washington Center
Sun 02:02:47 PM 39.3869 -75.0008 225° Southwest 372 428 32,700 984 Climbing Washington Center
Sun 02:03:48 PM 39.3186 -75.1006 228° Southwest 377 434 33,700 655 Climbing Washington Center
Sun 02:04:46 PM 39.2461 -75.1922 224° Southwest 377 434 34,000 303 Climbing Washington Center
Sun 02:05:47 PM 39.1756 -75.2944 228° Southwest 377 434 34,300 496 Climbing Washington Center
Sun 02:06:47 PM 39.0839 -75.3617 210° Southwest 372 428 35,000 694 Climbing Washington Center
Sun 02:07:48 PM 38.9819 -75.4075 199° South 379 436 35,700 504 Climbing Washington Center
Sun 02:08:46 PM 38.8839 -75.4636 204° Southwest 387 445 36,000 151 Climbing Washington Center
Sun 02:09:47 PM 38.7736 -75.5039 196° South 397 457 36,000  Level Washington Center
Sun 02:10:48 PM 38.6736 -75.5678 207° Southwest 402 463 36,000 198 Level Washington Center
Sun 02:11:48 PM 38.5608 -75.6103 196° South 408 470 36,400 508 Climbing Washington Center
Sun 02:12:46 PM 38.4589 -75.6633 202° Southwest 408 470 37,000 661 Climbing Washington Center
Sun 02:13:46 PM 38.3586 -75.7136 201° Southwest 408 470 37,700 500 Climbing Washington Center
Sun 02:14:46 PM 38.2647 -75.7558 199° South 403 464 38,000 148 Climbing Washington Center
Sun 02:15:48 PM 38.1647 -75.8056 201° Southwest 398 458 38,000  Level Washington Center
Sun 02:16:48 PM 38.0644 -75.8528 200° South 392 451 38,000  Level Washington Center
Sun 02:17:46 PM 37.9581 -75.9053 201° Southwest 392 451 38,000  Level Washington Center
Sun 02:18:47 PM 37.8536 -75.9522 200° South 397 457 38,000  Level Washington Center
Sun 02:19:48 PM 37.7408 -76.0119 203° Southwest 397 457 38,000  Level Washington Center
Sun 02:20:46 PM 37.6361 -76.0639 201° Southwest 397 457 38,000 -50 Level Washington Center
Sun 02:21:47 PM 37.5317 -76.1103 199° South 397 457 37,900  Descending Washington Center
Sun 02:22:47 PM 37.4481 -76.1517 201° Southwest 397 457 38,000 50 Climbing Washington Center
Sun 02:23:47 PM 37.3292 -76.2003 198° South 408 470 38,000  Level Washington Center
Sun 02:24:48 PM 37.2267 -76.2492 201° Southwest 408 470 38,000  Level Washington Center
Sun 02:25:46 PM 37.1219 -76.2978 200° South 408 470 38,000  Level Washington Center
Sun 02:26:47 PM 37.0194 -76.3464 201° Southwest 403 464 38,000  Level Washington Center
Sun 02:27:47 PM 36.9128 -76.3944 200° South 403 464 38,000  Level Washington Center
Sun 02:28:46 PM 36.8103 -76.4428 201° Southwest 403 464 38,000  Level Washington Center
Sun 02:29:46 PM 36.6950 -76.5011 202° Southwest 403 464 38,000  Level Washington Center
Sun 02:30:47 PM 36.5903 -76.5492 200° South 408 470 38,000  Level Washington Center
Sun 02:31:48 PM 36.4856 -76.5969 200° South 408 470 38,000  Level Washington Center
Sun 02:32:46 PM 36.3808 -76.6444 200° South 408 470 38,000  Level Washington Center
Sun 02:33:46 PM 36.2742 -76.6922 200° South 408 470 38,000  Level Washington Center
Sun 02:34:46 PM 36.1672 -76.7394 200° South 408 470 38,000  Level Washington Center
Sun 02:35:47 PM 36.0625 -76.7867 200° South 408 470 38,000  Level Washington Center
Sun 02:36:48 PM 35.9556 -76.8339 200° South 408 470 38,000  Level Washington Center
Sun 02:37:46 PM 35.8486 -76.8836 201° Southwest 408 470 38,000 -50 Level Washington Center
Sun 02:38:47 PM 35.7417 -76.9331 201° Southwest 408 470 37,900  Descending Washington Center
Sun 02:39:48 PM 35.6347 -76.9822 200° South 408 470 38,000 49 Climbing Washington Center
Sun 02:40:49 PM 35.5403 -77.0242 200° South 408 470 38,000  Level Washington Center
Sun 02:41:46 PM 35.4231 -77.0500 190° South 408 470 38,000  Level Washington Center
Sun 02:42:47 PM 35.3061 -77.0658 186° South 421 484 38,000  Level Washington Center
Sun 02:43:48 PM 35.1869 -77.0814 186° South 426 490 38,000  Level Washington Center
Sun 02:44:48 PM 35.0742 -77.1047 190° South 426 490 38,000  Level Washington Center
Sun 02:45:46 PM 34.9633 -77.1153 184° South 419 482 38,000  Level Washington Center
Sun 02:46:46 PM 34.8525 -77.1308 187° South 414 476 38,000  Level Washington Center
Sun 02:47:47 PM 34.7439 -77.1517 189° South 408 470 38,000 -50 Level Washington Center
Sun 02:48:47 PM 34.6331 -77.1672 187° South 408 470 37,900  Descending Washington Center
Sun 02:49:48 PM 34.5222 -77.1828 187° South 408 470 38,000 49 Climbing Washington Center
Sun 02:50:49 PM 34.4114 -77.1981 186° South 408 470 38,000  Level Washington Center
Sun 02:51:46 PM 34.3028 -77.2136 187° South 408 470 38,000  Level Washington Center
Sun 02:52:47 PM 34.1919 -77.2289 187° South 408 470 38,000  Level Washington Center
Sun 02:56:35 PM 33.7558 -77.2925 187° South 414 476 38,000  Level Jacksonville Center
Sun 02:57:35 PM 33.6419 -77.3072 186° South 419 482 38,000  Level Jacksonville Center
Sun 02:58:35 PM 33.5256 -77.3219 186° South 414 476 38,000  Level Jacksonville Center
Sun 02:59:35 PM 33.4117 -77.3392 187° South 414 476 38,000  Level Jacksonville Center
Sun 03:00:35 PM 33.2975 -77.3561 187° South 419 482 38,000  Level Jacksonville Center
Sun 03:01:35 PM 33.1856 -77.3706 186° South 419 482 38,000  Level Jacksonville Center
Sun 03:02:35 PM 33.0717 -77.3875 187° South 424 488 38,000 -50 Level Jacksonville Center
Sun 03:03:35 PM 32.9597 -77.4042 187° South 419 482 37,900  Descending Jacksonville Center
Sun 03:04:35 PM 32.8475 -77.4186 186° South 419 482 38,000 50 Climbing Jacksonville Center
Sun 03:05:35 PM 32.7375 -77.4328 186° South 413 475 38,000  Level Jacksonville Center
Sun 03:06:35 PM 32.6253 -77.4444 185° South 408 470 38,000  Level Jacksonville Center
Sun 03:07:35 PM 32.5114 -77.4636 188° South 408 470 38,000  Level Jacksonville Center
Sun 03:08:35 PM 32.4014 -77.4775 186° South 408 470 38,000  Level Jacksonville Center
Sun 03:09:35 PM 32.2853 -77.4942 187° South 408 470 38,000  Level Jacksonville Center
Sun 03:10:35 PM 32.1711 -77.5108 187° South 413 475 38,000 550 Level Jacksonville Center
Sun 03:11:35 PM 32.0614 -77.5294 188° South 413 475 39,100 1,000 Climbing Jacksonville Center
Sun 03:12:35 PM 31.9736 -77.5786 205° Southwest 363 418 40,000 454 Climbing Jacksonville Center
Sun 03:13:34 PM 31.8728 -77.6114 195° South 363 418 40,000  Level Jacksonville Center
Sun 03:14:35 PM 31.7686 -77.6172 183° South 376 433 40,000  Level Jacksonville Center
Sun 03:15:35 PM 31.6564 -77.6286 185° South 387 445 40,000  Level Jacksonville Center
Sun 03:16:35 PM 31.5461 -77.6372 184° South 397 457 40,000  Level Jacksonville Center
Sun 03:17:35 PM 31.4361 -77.6531 187° South 397 457 40,000  Level Jacksonville Center
Sun 03:18:35 PM 31.3256 -77.6569 182° South 402 463 40,000  Level Jacksonville Center
Sun 03:19:35 PM 31.2156 -77.6703 186° South 402 463 40,000  Level Jacksonville Center
Sun 03:20:35 PM 31.1072 -77.6764 183° South 402 463 40,000  Level Jacksonville Center
Sun 03:21:35 PM 30.9972 -77.6897 186° South 402 463 40,000  Level Jacksonville Center
Sun 03:22:35 PM 30.8892 -77.6981 184° South 402 463 40,000  Level Jacksonville Center
Sun 03:23:35 PM 30.7789 -77.7067 184° South 402 463 40,000  Level Jacksonville Center
Sun 03:26:03 PM 30.5047 -77.7417 186° South 405 466 40,000  Level Miami Center
Sun 03:27:03 PM 30.3986 -77.7481 183° South 403 464 40,000  Level Miami Center
Sun 03:28:03 PM 30.2900 -77.7542 183° South 410 472 40,000  Level Miami Center
Sun 03:29:03 PM 30.1797 -77.7508 179° South 416 479 40,000  Level Miami Center
Sun 03:30:03 PM 30.0669 -77.7453 178° South 416 479 40,000  Level Miami Center
Sun 03:31:03 PM 29.9442 -77.7322 175° South 415 478 40,000  Level Miami Center
Sun 03:32:03 PM 29.8336 -77.7267 178° South 415 478 40,000  Level Miami Center
Sun 03:33:03 PM 29.7231 -77.7208 177° South 404 465 40,000  Level Miami Center
Sun 03:34:03 PM 29.6147 -77.7153 177° South 404 465 40,000  Level Miami Center
Sun 03:35:03 PM 29.5000 -77.7097 178° South 405 466 40,000  Level Miami Center
Sun 03:36:03 PM 29.3875 -77.7039 177° South 405 466 40,000  Level Miami Center
Sun 03:37:03 PM 29.2789 -77.6961 176° South 404 465 40,000  Level Miami Center
Sun 03:38:03 PM 29.1600 -77.6881 177° South 413 475 40,000 -250 Level Miami Center
Sun 03:39:03 PM 29.0517 -77.6706 172° South 408 470 39,500 -600 Descending Miami Center
Sun 03:40:03 PM 28.9394 -77.6103 155° Southeast 416 479 38,800 -750 Descending Miami Center
Sun 03:41:03 PM 28.8333 -77.5506 154° Southeast 414 476 38,000 -400 Descending Miami Center
Sun 03:42:03 PM 28.7228 -77.4906 155° Southeast 425 489 38,000  Level Miami Center
Sun 03:43:03 PM 28.6106 -77.4308 155° Southeast 433 498 38,000  Level Miami Center
Sun 03:44:03 PM 28.5064 -77.3711 153° Southeast 433 498 38,000  Level Miami Center
Sun 03:45:03 PM 28.4022 -77.3142 154° Southeast 426 490 38,000  Level Miami Center
Sun 03:46:03 PM 28.2853 -77.2572 157° South 436 502 38,000  Level Miami Center
Sun 03:47:03 PM 28.1750 -77.1978 155° Southeast 442 509 38,000  Level Miami Center
Sun 03:48:03 PM 28.0478 -77.1292 155° Southeast 447 514 38,000  Level Miami Center
Sun 03:49:03 PM 27.9497 -77.0772 155° Southeast 442 509 38,000  Level Miami Center
Sun 03:50:03 PM 27.8264 -77.0089 154° Southeast 442 509 38,000  Level Miami Center
Sun 03:51:03 PM 27.7139 -76.9478 154° Southeast 442 509 38,000  Level Miami Center
Sun 03:52:03 PM 27.6031 -76.8892 155° Southeast 443 510 38,000 150 Level Miami Center
Sun 03:53:03 PM 27.4903 -76.8328 156° South 443 510 38,300 400 Climbing Miami Center
Sun 03:54:03 PM 27.3797 -76.7719 154° Southeast 444 511 38,800 500 Climbing Miami Center
Sun 03:55:03 PM 27.2708 -76.7208 157° South 444 511 39,300 500 Climbing Miami Center
Sun 03:56:03 PM 27.1581 -76.6578 154° Southeast 441 507 39,800 500 Climbing Miami Center
Sun 03:57:03 PM 27.0536 -76.6114 158° South 436 502 40,300 500 Climbing Miami Center
Sun 03:58:03 PM 26.9447 -76.5464 152° Southeast 436 502 40,800 350 Climbing Miami Center
Sun 03:59:03 PM 26.8381 -76.4908 155° Southeast 427 491 41,000 100 Climbing Miami Center
Sun 04:00:03 PM 26.7294 -76.4375 156° South 421 484 41,000  Level Miami Center
Sun 04:01:03 PM 26.6247 -76.3822 155° Southeast 420 483 41,000  Level Miami Center
Sun 04:02:03 PM 26.5139 -76.3222 154° Southeast 426 490 41,000  Level Miami Center
Sun 04:03:03 PM 26.4069 -76.2717 157° South 426 490 41,000  Level Miami Center
Sun 04:04:03 PM 26.2961 -76.2144 155° Southeast 426 490 41,000  Level Miami Center
Sun 04:05:03 PM 26.1892 -76.1617 156° South 426 490 41,000  Level Miami Center
Sun 04:06:03 PM 26.0781 -76.0997 153° Southeast 426 490 41,000  Level Miami Center
Sun 04:07:03 PM 25.9692 -76.0450 156° South 426 490 41,000  Level Miami Center
Sun 04:08:03 PM 25.8622 -75.9903 155° Southeast 421 484 41,000  Level Miami Center
Sun 04:09:03 PM 25.7492 -75.9336 156° South 426 490 41,000  Level Miami Center
Sun 04:10:03 PM 25.6422 -75.8792 155° Southeast 431 496 41,000  Level Miami Center
Sun 04:11:03 PM 25.5394 -75.8292 156° South 431 496 41,000  Level Miami Center
Sun 04:12:03 PM 25.4367 -75.7747 154° Southeast 431 496 41,000  Level Miami Center
Sun 04:13:03 PM 25.3233 -75.7183 156° South 431 496 41,000  Level Miami Center
Sun 04:14:03 PM 25.1997 -75.6622 158° South 438 504 41,000  Level Miami Center
Sun 04:15:03 PM 25.0925 -75.6058 155° Southeast 438 504 41,000  Level Miami Center
Sun 04:16:03 PM 24.9833 -75.5519 156° South 433 498 41,000  Level Miami Center
Sun 04:17:03 PM 24.8742 -75.4958 155° Southeast 428 493 41,000  Level Miami Center
Sun 04:18:03 PM 24.7692 -75.4419 155° Southeast 423 487 41,000  Level Miami Center
Sun 04:19:03 PM 24.6600 -75.3861 155° Southeast 423 487 41,000  Level Miami Center
Sun 04:20:03 PM 24.5531 -75.3350 157° South 423 487 41,000  Level Miami Center
Sun 04:21:03 PM 24.4436 -75.2792 155° Southeast 423 487 41,000  Level Miami Center
Sun 04:22:03 PM 24.3367 -75.2258 156° South 423 487 41,000  Level Miami Center
Sun 04:23:03 PM 24.2294 -75.1725 156° South 423 487 41,000  Level Miami Center
Sun 04:24:03 PM 24.1181 -75.1194 157° South 423 487 41,000  Level Miami Center
Sun 04:25:03 PM 24.0214 -75.0683 154° Southeast 428 493 41,000  Level Miami Center
Sun 04:26:03 PM 23.9119 -75.0156 156° South 428 493 41,000  Level Miami Center
Sun 04:27:03 PM 23.8028 -74.9625 156° South 428 493 41,000  Level Miami Center
Sun 04:28:03 PM 23.6933 -74.9075 155° Southeast 423 487 41,000  Level Miami Center
Sun 04:29:03 PM 23.5819 -74.8547 157° South 428 493 41,000  Level Miami Center
Sun 04:30:03 PM 23.4725 -74.8000 155° Southeast 428 493 41,000  Level Miami Center
Sun 04:31:03 PM 23.3608 -74.7450 156° South 428 493 41,000  Level Miami Center
Sun 04:32:03 PM 23.2517 -74.6950 157° South 428 493 41,000  Level Miami Center
Sun 04:33:03 PM 23.1442 -74.6403 155° Southeast 428 493 41,000  Level Miami Center
Sun 04:34:03 PM 23.0306 -74.5881 157° South 433 498 41,000  Level Miami Center
Sun 04:35:03 PM 22.9211 -74.5336 155° Southeast 433 498 41,000  Level Miami Center
Sun 04:36:03 PM 22.8117 -74.4814 156° South 433 498 41,000  Level Miami Center
Sun 04:37:03 PM 22.6981 -74.4272 156° South 440 506 41,000  Level Miami Center
Sun 04:38:03 PM 22.5864 -74.3753 157° South 440 506 41,000  Level Miami Center
Sun 04:39:03 PM 22.4750 -74.3214 156° South 440 506 41,000  Level Miami Center
Sun 04:40:03 PM 22.3611 -74.2697 157° South 440 506 41,000  Level Miami Center
Sun 04:41:03 PM 22.2517 -74.2136 155° Southeast 440 506 41,000  Level Miami Center
Sun 04:42:03 PM 22.1442 -74.1642 157° South 433 498 41,000 -350 Level Miami Center
Sun 04:43:03 PM 22.0325 -74.1081 155° Southeast 420 483 40,300 -850 Descending Miami Center
Sun 04:44:03 PM 21.9208 -74.0567 157° South 420 483 39,300 -950 Descending Miami Center
Sun 04:45:03 PM 21.8197 -74.0031 154° Southeast 434 499 38,400 -1,000 Descending Miami Center
Sun 04:46:03 PM 21.7103 -73.9539 157° South 441 507 37,300 -700 Descending Miami Center
Sun 04:47:03 PM 21.5964 -73.9006 156° South 441 507 37,000 -150 Descending Miami Center
Sun 04:48:03 PM 21.4825 -73.8428 155° Southeast 441 507 37,000  Level Miami Center
Sun 04:49:03 PM 21.3753 -73.7939 157° South 436 502 37,000  Level Miami Center
Sun 04:50:03 PM 21.2697 -73.7453 157° South 430 495 37,000  Level Miami Center
Sun 04:51:03 PM 21.1603 -73.6922 156° South 430 495 37,000  Level Miami Center
Sun 04:52:03 PM 21.0506 -73.6392 156° South 425 489 37,000  Level Miami Center
Sun 04:53:03 PM 20.9453 -73.5928 158° South 418 481 37,000  Level Miami Center
Sun 04:54:03 PM 20.8397 -73.5419 156° South 418 481 37,000  Level Miami Center
Sun 04:55:03 PM 20.7364 -73.4936 156° South 418 481 37,000  Level Miami Center
Sun 04:56:03 PM 20.6311 -73.4450 157° South 418 481 37,000  Level Miami Center
Sun 04:57:03 PM 20.5278 -73.3944 155° Southeast 418 481 37,000 -50 Level Miami Center
Sun 04:58:03 PM 20.4203 -73.3464 157° South 418 481 36,900 -1,550 Descending Miami Center
Sun 04:59:03 PM 20.3108 -73.2961 157° South 425 489 33,900 -3,100 Descending Miami Center
Sun 05:00:03 PM 20.2011 -73.2458 157° South 425 489 30,700 -2,350 Descending Miami Center
Sun 05:01:03 PM 20.0933 -73.1892 154° Southeast 425 489 29,200 -1,500 Descending Miami Center
Sun 05:03:00 PM 19.9071 -73.0776 151° Southeast  Level FlightAware Approximate
Sun 05:10:00 PM 19.2369 -72.6814 149° Southeast  Level FlightAware Approximate
Sun 05:11:00 PM 19.1425 -72.6224 149° Southeast  Level FlightAware Approximate
Sun 05:12:00 PM 19.0440 -72.5737 148° Southeast  Level FlightAware Approximate
Sun 05:13:00 PM 18.9512 -72.5119 148° Southeast  Level FlightAware Approximate
Sun 05:14:00 PM 18.8572 -72.4524 149° Southeast  Level FlightAware Approximate
Sun 05:15:00 PM 18.7589 -72.4030 162° South  Level FlightAware Approximate
Sun 05:16:00 PM 18.6650 -72.3446 145° Southeast  Level FlightAware Approximate
Sun 05:17:00 PM 18.5800 -72.2925 159° South  Level Estimated
Sun 05:18:00 PM 18.5800 -72.2925 159° South  Level Estimated
Sun 05:19:00 PM 18.5800 -72.2925 159° South  Level Estimated
Sun 05:20:00 PM 18.5800 -72.2925 159° South  Level Estimated
Sun 05:21:00 PM 18.5800 -72.2925 159° South  Level Estimated
Sun 05:22:00 PM 18.5800 -72.2925 159° South  Level Estimated
Sun 05:23:00 PM 18.5800 -72.2925 159° South  Level Estimated
Sun 05:24:00 PM 18.5800 -72.2925 159° South  Level Estimated
Sun 05:25:00 PM 18.5800 -72.2925 159° South  Level Estimated
Sun 05:26:00 PM 18.5800 -72.2925 159° South  Level Estimated
Sun 05:27:00 PM 18.5800 -72.2925 159° South  Level Estimated
Sun 05:28:00 PM 18.5800 -72.2925 159° South  Level Estimated
Sun 05:29:00 PM 18.5800 -72.2925 159° South  Level Estimated
Sun 05:30:00 PM 18.5800 -72.2925 159° South  Level Estimated
Sun 05:31:00 PM 18.5800 -72.2925 159° South  Level Estimated
Sun 05:32:00 PM 18.5800 -72.2925 159° South  Level Estimated
Sun 05:33:00 PM 18.5800 -72.2925 159° South  Level Estimated
Sun 05:34:00 PM 18.5800 -72.2925 159° South  Level Estimated
Sun 05:35:00 PM 18.5800 -72.2925 159° South  Level Estimated
Sun 05:36:00 PM 18.5800 -72.2925 159° South  Level Estimated
Sun 05:37:00 PM 18.5800 -72.2925 159° South  Level Estimated
Sun 05:38:00 PM 18.5800 -72.2925 159° South  Level Estimated

Login

Don't have an account? Register now (free) for customized features, flight alerts, and more!